createdAt,value
2022-10-05T00:01:34.866Z,6.28
2022-10-05T00:04:19.710Z,6.60
2022-10-05T00:07:00.946Z,7.07
2022-10-05T00:09:48.217Z,7.88
2022-10-05T00:12:28.400Z,7.93
2022-10-05T00:15:01.615Z,7.15
2022-10-05T00:17:42.679Z,6.90
2022-10-05T00:20:20.379Z,6.65
2022-10-05T00:23:01.644Z,6.97
2022-10-05T00:25:35.352Z,6.45
2022-10-05T00:28:17.650Z,6.75
2022-10-05T00:31:00.854Z,6.00
2022-10-05T00:33:32.856Z,6.90
2022-10-05T00:36:07.133Z,7.38
2022-10-05T00:38:40.540Z,7.82
2022-10-05T00:41:17.593Z,6.30
2022-10-05T00:44:32.861Z,7.10
2022-10-05T00:47:32.054Z,6.82
2022-10-05T00:50:40.062Z,6.97
2022-10-05T00:53:34.840Z,7.20
2022-10-05T00:56:48.619Z,6.47
2022-10-05T00:59:49.103Z,7.43
2022-10-05T01:03:01.461Z,6.82
2022-10-05T01:06:19.270Z,7.10
2022-10-05T01:09:19.853Z,7.40
2022-10-05T01:12:23.028Z,7.95
2022-10-05T01:15:14.033Z,7.40
2022-10-05T01:18:43.820Z,8.15
2022-10-05T01:22:04.269Z,7.57
2022-10-05T01:25:27.893Z,7.53
2022-10-05T01:28:17.268Z,7.20
2022-10-05T01:31:15.680Z,7.30
2022-10-05T01:34:29.238Z,7.10
2022-10-05T01:37:19.413Z,7.38
2022-10-05T01:40:17.210Z,7.60
2022-10-05T01:43:29.579Z,7.28
2022-10-05T01:46:30.382Z,7.13
2022-10-05T01:49:46.016Z,8.13
2022-10-05T01:52:48.854Z,7.38
2022-10-05T01:55:54.576Z,7.70
2022-10-05T01:58:53.205Z,7.15
2022-10-05T02:02:07.550Z,7.50
2022-10-05T02:05:16.739Z,7.20
2022-10-05T02:08:17.730Z,7.93
2022-10-05T02:10:59.673Z,8.20
2022-10-05T02:13:46.070Z,8.18
2022-10-05T02:16:36.005Z,7.85
2022-10-05T02:19:35.347Z,8.02
2022-10-05T02:22:21.929Z,8.00
2022-10-05T02:25:01.477Z,8.45
2022-10-05T02:27:43.224Z,7.93
2022-10-05T02:30:20.429Z,8.10
2022-10-05T02:33:02.472Z,9.20
2022-10-05T02:35:41.681Z,8.23
2022-10-05T02:38:26.959Z,9.35
2022-10-05T02:41:24.499Z,9.20
2022-10-05T02:44:09.223Z,8.93
2022-10-05T02:47:18.306Z,8.23
2022-10-05T02:50:32.434Z,8.80
2022-10-05T02:53:37.745Z,8.23
2022-10-05T02:56:33.193Z,8.38
2022-10-05T03:00:01.607Z,8.75
2022-10-05T03:02:48.631Z,8.05
2022-10-05T03:06:05.440Z,9.20
2022-10-05T03:09:01.400Z,7.82
2022-10-05T03:12:11.324Z,9.00
2022-10-05T03:15:03.843Z,7.40
2022-10-05T03:18:37.133Z,8.15
2022-10-05T03:21:31.654Z,8.75
2022-10-05T03:24:32.218Z,8.52
2022-10-05T03:27:28.316Z,8.52
2022-10-05T03:30:23.319Z,9.35
2022-10-05T03:33:05.246Z,8.40
2022-10-05T03:35:59.126Z,10.68
2022-10-05T03:39:10.608Z,9.05
2022-10-05T03:42:07.048Z,7.80
2022-10-05T03:45:11.483Z,8.65
2022-10-05T03:48:23.542Z,8.20
2022-10-05T03:51:32.594Z,8.30
2022-10-05T03:54:42.247Z,8.30
2022-10-05T03:57:35.052Z,8.80
2022-10-05T04:00:32.060Z,9.38
2022-10-05T04:03:21.577Z,8.95
2022-10-05T04:06:27.553Z,9.25
2022-10-05T04:09:27.754Z,11.88
2022-10-05T04:12:25.599Z,10.85
2022-10-05T04:15:39.886Z,10.20
2022-10-05T04:18:27.708Z,10.30
2022-10-05T04:21:37.070Z,10.07
2022-10-05T04:24:54.568Z,9.48
2022-10-05T04:27:39.198Z,9.20
2022-10-05T04:30:33.052Z,8.70
2022-10-05T04:33:12.673Z,9.70
2022-10-05T04:35:55.548Z,9.20
2022-10-05T04:39:11.812Z,9.52
2022-10-05T04:42:14.356Z,10.30
2022-10-05T04:45:14.317Z,9.52
2022-10-05T04:48:30.645Z,10.02
2022-10-05T04:51:37.046Z,8.88
2022-10-05T04:54:46.850Z,10.25
2022-10-05T04:57:53.817Z,10.85
2022-10-05T05:01:18.652Z,11.05
2022-10-05T05:04:20.447Z,9.90
2022-10-05T05:07:33.909Z,9.98
2022-10-05T05:10:43.951Z,10.02
2022-10-05T05:13:44.768Z,9.55
2022-10-05T05:16:38.043Z,9.02
2022-10-05T05:19:18.380Z,9.95
2022-10-05T05:22:34.255Z,10.50
2022-10-05T05:25:39.078Z,10.10
2022-10-05T05:28:58.534Z,9.63
2022-10-05T05:31:57.813Z,10.55
2022-10-05T05:35:14.476Z,10.18
2022-10-05T05:38:24.551Z,10.75
2022-10-05T05:41:43.389Z,10.25
2022-10-05T05:44:34.223Z,9.57
2022-10-05T05:47:39.046Z,9.80
2022-10-05T05:50:41.776Z,10.27
2022-10-05T05:53:32.558Z,10.75
2022-10-05T05:56:19.989Z,10.75
2022-10-05T05:59:06.458Z,10.23
2022-10-05T06:02:27.376Z,10.57
2022-10-05T06:05:47.502Z,10.90
2022-10-05T06:08:49.238Z,11.25
2022-10-05T06:11:35.935Z,11.48
2022-10-05T06:14:18.501Z,11.20
2022-10-05T06:17:24.139Z,11.00
2022-10-05T06:21:17.708Z,11.80
2022-10-05T06:24:16.658Z,10.70
2022-10-05T06:27:19.880Z,9.90
2022-10-05T06:30:13.766Z,10.95
2022-10-05T06:33:01.787Z,10.82
2022-10-05T06:36:24.691Z,10.15
2022-10-05T06:39:41.126Z,11.02
2022-10-05T06:42:42.505Z,9.02
2022-10-05T06:45:48.260Z,9.15
2022-10-05T06:49:07.954Z,9.02
2022-10-05T06:52:19.366Z,10.25
2022-10-05T06:55:29.863Z,8.80
2022-10-05T06:59:01.873Z,8.27
2022-10-05T07:02:07.137Z,8.40
2022-10-05T07:05:36.486Z,7.50
2022-10-05T07:08:34.502Z,7.80
2022-10-05T07:12:05.467Z,6.80
2022-10-05T07:15:30.843Z,8.50
2022-10-05T07:18:34.767Z,7.53
2022-10-05T07:21:39.582Z,7.20
2022-10-05T07:24:54.092Z,8.10
2022-10-05T07:28:17.369Z,7.80
2022-10-05T07:31:03.647Z,7.50
2022-10-05T07:33:55.383Z,7.43
2022-10-05T07:37:16.927Z,7.60
2022-10-05T07:40:29.607Z,7.93
2022-10-05T07:43:45.288Z,7.27
2022-10-05T07:47:02.003Z,7.87
2022-10-05T07:49:59.611Z,7.43
2022-10-05T07:52:55.634Z,8.30
2022-10-05T07:55:31.338Z,7.97
2022-10-05T07:58:29.722Z,7.77
2022-10-05T08:01:13.019Z,8.40
2022-10-05T08:04:04.463Z,7.83
2022-10-05T08:06:54.302Z,8.77
2022-10-05T08:09:42.036Z,8.43
2022-10-05T08:12:34.237Z,7.87
2022-10-05T08:15:34.836Z,8.13
2022-10-05T08:18:21.385Z,8.47
2022-10-05T08:21:16.205Z,7.60
2022-10-05T08:24:04.122Z,8.57
2022-10-05T08:27:16.509Z,7.50
2022-10-05T08:30:06.606Z,8.17
2022-10-05T08:32:45.668Z,7.33
2022-10-05T08:35:56.502Z,7.90
2022-10-05T08:38:37.527Z,8.03
2022-10-05T08:41:57.749Z,8.03
2022-10-05T08:45:20.644Z,8.27
2022-10-05T08:48:35.886Z,7.73
2022-10-05T08:51:56.205Z,7.00
2022-10-05T08:55:00.081Z,7.80
2022-10-05T08:58:13.180Z,7.28
2022-10-05T09:01:04.956Z,7.43
2022-10-05T09:03:56.771Z,7.47
2022-10-05T09:07:14.633Z,7.50
2022-10-05T09:10:26.059Z,7.50
2022-10-05T09:13:54.706Z,7.72
2022-10-05T09:17:14.425Z,7.32
2022-10-05T09:20:34.950Z,7.82
2022-10-05T09:23:43.224Z,7.90
2022-10-05T09:26:40.628Z,7.20
2022-10-05T09:29:54.975Z,7.20
2022-10-05T09:33:04.372Z,5.90
2022-10-05T09:36:18.030Z,6.75
2022-10-05T09:39:31.657Z,6.03
2022-10-05T09:43:09.527Z,6.93
2022-10-05T09:46:28.071Z,7.70
2022-10-05T09:49:31.034Z,6.00
2022-10-05T09:52:37.983Z,7.03
2022-10-05T09:55:50.812Z,7.23
2022-10-05T09:59:03.206Z,6.80
2022-10-05T10:01:49.157Z,6.20
2022-10-05T10:05:05.964Z,6.10
2022-10-05T10:08:26.879Z,7.07
2022-10-05T10:11:40.121Z,6.40
2022-10-05T10:14:53.019Z,6.13
2022-10-05T10:18:01.926Z,5.90
2022-10-05T10:21:08.010Z,5.50
2022-10-05T10:24:27.367Z,6.27
2022-10-05T10:27:37.697Z,4.63
2022-10-05T10:30:36.609Z,4.90
2022-10-05T10:33:56.207Z,4.17
2022-10-05T10:36:47.440Z,5.10
2022-10-05T10:39:59.942Z,4.53
2022-10-05T10:43:08.955Z,4.60
2022-10-05T10:46:39.258Z,4.53
2022-10-05T10:49:36.910Z,4.80
2022-10-05T10:53:03.780Z,5.20
2022-10-05T10:56:25.465Z,4.23
2022-10-05T10:59:26.572Z,4.23
2022-10-05T11:02:48.811Z,3.93
2022-10-05T11:06:15.301Z,3.60
2022-10-05T11:09:28.678Z,4.17
2022-10-05T11:12:34.837Z,3.17
2022-10-05T11:15:34.443Z,3.90
2022-10-05T11:18:47.360Z,4.23
2022-10-05T11:21:50.428Z,3.47
2022-10-05T11:25:24.722Z,3.50
2022-10-05T11:28:46.507Z,3.40
2022-10-05T11:32:06.012Z,3.83
2022-10-05T11:35:41.159Z,4.63
2022-10-05T11:39:02.198Z,4.13
2022-10-05T11:41:59.660Z,3.97
2022-10-05T11:45:42.001Z,3.13
2022-10-05T11:48:31.376Z,3.40
2022-10-05T11:51:54.905Z,3.30
2022-10-05T11:55:11.938Z,3.20
2022-10-05T11:58:25.489Z,2.53
2022-10-05T12:01:28.974Z,2.13
2022-10-05T12:04:45.698Z,2.30
2022-10-05T12:07:36.268Z,2.50
2022-10-05T12:10:22.687Z,2.60
2022-10-05T12:13:10.757Z,2.30
2022-10-05T12:16:23.685Z,2.60
2022-10-05T12:19:12.026Z,1.90
2022-10-05T12:21:55.914Z,2.67
2022-10-05T12:24:48.097Z,2.03
2022-10-05T12:27:45.771Z,1.90
2022-10-05T12:30:29.028Z,2.30
2022-10-05T12:33:47.660Z,2.03
2022-10-05T12:37:04.122Z,2.20
2022-10-05T12:40:03.119Z,2.03
2022-10-05T12:43:23.247Z,2.53
2022-10-05T12:46:14.444Z,2.10
2022-10-05T12:49:02.166Z,2.30
2022-10-05T12:52:03.608Z,1.67
2022-10-05T12:55:00.852Z,2.13
2022-10-05T12:58:19.003Z,2.10
2022-10-05T13:01:29.730Z,1.83
2022-10-05T13:04:38.452Z,1.83
2022-10-05T13:07:45.288Z,1.90
2022-10-05T13:10:43.174Z,1.93
2022-10-05T13:13:42.655Z,1.70
2022-10-05T13:16:37.709Z,1.90
2022-10-05T13:19:39.399Z,1.90
2022-10-05T13:22:21.076Z,1.77
2022-10-05T13:25:04.611Z,1.57
2022-10-05T13:28:17.533Z,2.13
2022-10-05T13:31:13.235Z,1.73
2022-10-05T13:34:35.627Z,2.67
2022-10-05T13:38:06.153Z,2.40
2022-10-05T13:41:00.721Z,3.13
2022-10-05T13:44:14.319Z,2.63
2022-10-05T13:47:31.526Z,2.50
2022-10-05T13:50:29.807Z,2.97
2022-10-05T13:53:33.981Z,3.47
2022-10-05T13:56:31.049Z,3.07
2022-10-05T13:59:36.220Z,3.50
2022-10-05T14:02:22.913Z,2.70
2022-10-05T14:05:20.617Z,3.00
2022-10-05T14:07:58.556Z,3.00
2022-10-05T14:10:48.060Z,3.40
2022-10-05T14:13:21.747Z,3.73
2022-10-05T14:16:05.795Z,3.23
2022-10-05T14:19:20.055Z,2.93
2022-10-05T14:22:11.475Z,3.30
2022-10-05T14:24:54.268Z,3.30
2022-10-05T14:27:55.546Z,2.90
2022-10-05T14:31:16.901Z,3.40
2022-10-05T14:34:29.302Z,3.30
2022-10-05T14:37:23.645Z,3.60
2022-10-05T14:40:38.987Z,3.40
2022-10-05T14:43:13.924Z,3.20
2022-10-05T14:46:23.259Z,3.60
2022-10-05T14:49:29.282Z,2.60
2022-10-05T14:52:28.707Z,2.97
2022-10-05T14:55:43.717Z,2.97
2022-10-05T14:58:51.662Z,3.00
2022-10-05T15:01:48.904Z,3.37
2022-10-05T15:04:44.220Z,2.77
2022-10-05T15:07:38.956Z,3.27
2022-10-05T15:10:49.836Z,2.70
2022-10-05T15:13:53.016Z,2.43
2022-10-05T15:16:34.181Z,3.23
2022-10-05T15:19:24.981Z,2.80
2022-10-05T15:22:18.767Z,2.63
2022-10-05T15:25:17.170Z,2.47
2022-10-05T15:28:07.271Z,2.40
2022-10-05T15:31:08.098Z,2.63
2022-10-05T15:33:59.081Z,2.93
2022-10-05T15:36:49.323Z,2.60
2022-10-05T15:39:51.298Z,2.70
2022-10-05T15:42:45.096Z,2.83
2022-10-05T15:45:25.889Z,3.10
2022-10-05T15:48:29.190Z,3.40
2022-10-05T15:51:25.836Z,3.10
2022-10-05T15:54:41.983Z,2.70
2022-10-05T15:57:55.993Z,3.77
2022-10-05T16:00:51.667Z,4.87
2022-10-05T16:04:10.091Z,5.27
2022-10-05T16:07:21.021Z,4.77
2022-10-05T16:10:22.335Z,4.20
2022-10-05T16:13:27.896Z,4.20
2022-10-05T16:16:21.074Z,6.90
2022-10-05T16:19:32.737Z,7.77
2022-10-05T16:22:25.490Z,5.10
2022-10-05T16:25:34.043Z,4.80
2022-10-05T16:29:02.691Z,4.40
2022-10-05T16:32:10.577Z,4.27
2022-10-05T16:35:22.018Z,3.53
2022-10-05T16:38:29.648Z,3.63
2022-10-05T16:41:21.225Z,2.97
2022-10-05T16:44:33.604Z,3.30
2022-10-05T16:47:27.678Z,3.00
2022-10-05T16:50:18.855Z,2.70
2022-10-05T16:53:33.153Z,3.10
2022-10-05T16:56:34.591Z,2.60
2022-10-05T16:59:19.461Z,2.50
2022-10-05T17:02:26.502Z,2.77
2022-10-05T17:05:39.682Z,2.77
2022-10-05T17:08:56.452Z,2.67
2022-10-05T17:12:26.810Z,2.53
2022-10-05T17:15:39.852Z,2.70
2022-10-05T17:19:09.406Z,2.43
2022-10-05T17:22:06.988Z,2.30
2022-10-05T17:25:24.453Z,2.33
2022-10-05T17:28:41.352Z,2.57
2022-10-05T17:32:02.781Z,2.67
2022-10-05T17:35:00.753Z,2.53
2022-10-05T17:38:09.845Z,2.40
2022-10-05T17:41:15.366Z,2.23
2022-10-05T17:44:06.942Z,2.33
2022-10-05T17:46:56.102Z,1.90
2022-10-05T17:50:14.499Z,2.27
2022-10-05T17:53:56.119Z,2.27
2022-10-05T17:56:48.021Z,2.50
2022-10-05T17:59:44.635Z,2.47
2022-10-05T18:02:36.567Z,2.67
2022-10-05T18:05:16.176Z,2.37
2022-10-05T18:08:16.603Z,2.70
2022-10-05T18:11:11.152Z,2.63
2022-10-05T18:13:50.326Z,2.90
2022-10-05T18:17:12.070Z,2.67
2022-10-05T18:20:14.876Z,2.10
2022-10-05T18:23:09.876Z,2.47
2022-10-05T18:26:06.785Z,2.22
2022-10-05T18:29:14.150Z,2.30
2022-10-05T18:32:47.319Z,2.40
2022-10-05T18:35:48.592Z,2.00
2022-10-05T18:38:43.498Z,2.20
2022-10-05T18:41:49.735Z,2.10
2022-10-05T18:44:48.489Z,1.90
2022-10-05T18:47:30.908Z,1.90
2022-10-05T18:50:26.436Z,2.00
2022-10-05T18:53:16.635Z,2.17
2022-10-05T18:56:43.944Z,1.77
2022-10-05T18:59:32.836Z,3.30
2022-10-05T19:02:26.180Z,2.00
2022-10-05T19:05:46.997Z,2.47
2022-10-05T19:09:12.143Z,2.37
2022-10-05T19:12:18.219Z,2.00
2022-10-05T19:15:18.749Z,2.20
2022-10-05T19:18:29.604Z,2.00
2022-10-05T19:21:46.585Z,2.20
2022-10-05T19:25:14.806Z,2.30
2022-10-05T19:28:19.374Z,2.60
2022-10-05T19:31:28.132Z,2.67
2022-10-05T19:34:28.391Z,2.53
2022-10-05T19:37:39.326Z,2.50
2022-10-05T19:40:41.949Z,2.87
2022-10-05T19:43:39.533Z,2.43
2022-10-05T19:46:30.988Z,2.42
2022-10-05T19:49:41.880Z,2.00
2022-10-05T19:52:36.117Z,2.20
2022-10-05T19:55:12.762Z,2.67
2022-10-05T19:58:01.381Z,2.23
2022-10-05T20:01:02.349Z,2.20
2022-10-05T20:03:38.247Z,2.53
2022-10-05T20:06:21.690Z,2.30
2022-10-05T20:09:00.050Z,2.33
2022-10-05T20:11:51.720Z,2.20
2022-10-05T20:14:32.640Z,2.80
2022-10-05T20:17:47.290Z,2.60
2022-10-05T20:20:47.074Z,2.57
2022-10-05T20:23:27.914Z,2.38
2022-10-05T20:26:19.482Z,2.33
2022-10-05T20:29:11.335Z,2.60
2022-10-05T20:31:43.422Z,2.80
2022-10-05T20:34:18.002Z,2.60
2022-10-05T20:36:50.956Z,2.60
2022-10-05T20:39:23.019Z,2.90
2022-10-05T20:41:55.028Z,2.57
2022-10-05T20:44:27.556Z,2.17
2022-10-05T20:47:01.650Z,2.40
2022-10-05T20:49:37.855Z,2.50
2022-10-05T20:52:15.008Z,2.20
2022-10-05T20:54:47.143Z,2.25
2022-10-05T20:57:24.294Z,2.37
2022-10-05T20:59:58.218Z,2.40
2022-10-05T21:02:30.257Z,2.60
2022-10-05T21:05:04.632Z,2.67
2022-10-05T21:07:37.270Z,2.20
2022-10-05T21:10:09.584Z,2.85
2022-10-05T21:12:42.216Z,2.60
2022-10-05T21:15:16.667Z,2.40
2022-10-05T21:17:48.695Z,2.28
2022-10-05T21:20:21.358Z,2.30
2022-10-05T21:22:53.383Z,2.83
2022-10-05T21:25:25.414Z,2.00
2022-10-05T21:27:58.228Z,2.30
2022-10-05T21:30:30.223Z,2.30
2022-10-05T21:33:02.566Z,2.70
2022-10-05T21:35:34.634Z,1.90
2022-10-05T21:38:06.914Z,2.40
2022-10-05T21:40:38.909Z,2.37
2022-10-05T21:43:11.423Z,2.25
2022-10-05T21:45:46.740Z,2.40
2022-10-05T21:48:19.022Z,2.70
2022-10-05T21:50:51.602Z,2.13
2022-10-05T21:53:27.391Z,2.30
2022-10-05T21:56:08.169Z,2.07
2022-10-05T21:58:46.403Z,2.50
2022-10-05T22:01:22.500Z,2.38
2022-10-05T22:03:55.133Z,2.35
2022-10-05T22:06:27.676Z,2.60
2022-10-05T22:08:59.825Z,2.57
2022-10-05T22:11:32.897Z,2.20
2022-10-05T22:14:04.848Z,2.60
2022-10-05T22:16:38.518Z,2.00
2022-10-05T22:19:16.240Z,2.15
2022-10-05T22:21:49.626Z,2.30
2022-10-05T22:24:44.729Z,2.13
2022-10-05T22:27:17.144Z,2.08
2022-10-05T22:29:51.230Z,2.42
2022-10-05T22:32:24.518Z,2.53
2022-10-05T22:34:56.463Z,2.03
2022-10-05T22:37:28.568Z,2.17
2022-10-05T22:40:00.725Z,2.15
2022-10-05T22:42:32.698Z,2.27
2022-10-05T22:45:07.115Z,2.50
2022-10-05T22:47:39.406Z,2.00
2022-10-05T22:50:12.992Z,2.20
2022-10-05T22:52:45.062Z,2.55
2022-10-05T22:55:20.237Z,2.33
2022-10-05T22:57:52.236Z,2.33
2022-10-05T23:00:35.257Z,2.50
2022-10-05T23:03:15.666Z,2.10
2022-10-05T23:05:47.630Z,2.30
2022-10-05T23:08:27.034Z,1.98
2022-10-05T23:11:03.287Z,2.50
2022-10-05T23:13:37.971Z,2.53
2022-10-05T23:16:12.882Z,2.40
2022-10-05T23:18:51.906Z,2.33
2022-10-05T23:21:27.014Z,2.45
2022-10-05T23:24:00.312Z,2.58
2022-10-05T23:26:33.405Z,2.40
2022-10-05T23:29:05.942Z,2.50
2022-10-05T23:31:37.984Z,2.45
2022-10-05T23:34:09.987Z,2.60
2022-10-05T23:36:42.030Z,2.60
2022-10-05T23:39:14.269Z,2.10
2022-10-05T23:41:46.328Z,2.20
2022-10-05T23:44:18.370Z,2.40
2022-10-05T23:46:50.796Z,3.30
2022-10-05T23:49:23.062Z,2.85
2022-10-05T23:51:54.945Z,3.00
2022-10-05T23:54:26.825Z,2.70
2022-10-05T23:56:58.691Z,2.67
2022-10-05T23:59:30.639Z,3.00
